Kenema Airport

Jump to: basic info | weather | comments

Related pages: nearby airports | nearby navaids | notams | map

Basic information (top)

Codes: KEN GFKE
Location: lon 7.891290, lat -11.176600, elev 485 ft / 148 m msl
Status: medium_airport
Scheduled airline service: yes
Links: Wikipedia Mobile

Weather (top)

Current conditions for Roberts International Airport 111nm (205km) SSE (rec'd 2014/09/22 10:00Z):

GLRB 221000Z 00000KT 9000 -DZ FEW006 BKN013 FEW023 CB 25/24 Q1014 RMK CB-NE/SW

Airport forecast for Roberts International Airport 111nm (205km) SSE (rec'd 2014/09/21 00:54Z):

TAF TAF GLRB 212200Z 2200/2306 18010KT TSRA SCT003 BKN013 FEW023CB 
      TEMPO 2201/2205 VRB02KT 4000 FM 220600 02004KT 9999 BKN014 
      TEMPO 2211/2215 24012KT 9999 BKN016

Latest comments (top)

No comments yet for Kenema Airport

More... (top)

See also NOTAMs and nearby airports and navaids, or visit the Kenema Airport page at the main OurAirports website..